Time;durP1;ratioP1;P1;durP2;ratioP2;P2;SDS_P1;SDS_P2;PMS_P1;PMS_P2;Temp;Humidity;BMP_temperature;BMP_pressure;BME280_temperature;BME280_humidity;BME280_pressure;Samples;Min_cycle;Max_cycle;Signal;HPM_P1;HPM_P2
2023/07/01 00:01:01;;;;;;;3.83;1.60;;;20.40;81.30;;;;;;10442771;28;20449;-67
2023/07/01 00:06:02;;;;;;;2.35;1.50;;;20.40;81.30;;;;;;10460458;28;20405;-67
2023/07/01 00:11:03;;;;;;;2.42;1.40;;;20.40;81.30;;;;;;10453212;28;20036;-67
2023/07/01 00:16:04;;;;;;;2.45;1.20;;;20.40;81.30;;;;;;10457758;28;20048;-67
2023/07/01 00:21:05;;;;;;;2.20;1.52;;;20.30;81.30;;;;;;10436051;28;20030;-67
2023/07/01 00:26:05;;;;;;;4.55;1.60;;;20.30;81.30;;;;;;10430035;28;20166;-67
2023/07/01 00:31:06;;;;;;;1.80;1.42;;;20.30;81.30;;;;;;10431670;28;20032;-67
2023/07/01 00:36:07;;;;;;;5.05;2.00;;;20.30;81.30;;;;;;10443207;28;20025;-67
2023/07/01 00:41:07;;;;;;;1.95;1.52;;;20.30;81.30;;;;;;10441130;28;20035;-67
2023/07/01 00:46:08;;;;;;;3.40;2.00;;;20.30;81.30;;;;;;10457259;28;20419;-67
2023/07/01 00:51:09;;;;;;;3.45;1.60;;;20.20;81.30;;;;;;10447356;28;20088;-67
2023/07/01 00:56:09;;;;;;;3.25;1.55;;;20.20;81.30;;;;;;10443358;28;20024;-67
2023/07/01 01:01:15;;;;;;;3.30;1.63;;;20.20;81.40;;;;;;10445920;28;20029;-67
2023/07/01 01:06:33;;;;;;;2.15;1.40;;;20.20;81.40;;;;;;10437330;28;20037;-67
2023/07/01 01:11:34;;;;;;;2.75;1.60;;;20.20;81.30;;;;;;10452460;28;20029;-67
2023/07/01 01:16:35;;;;;;;3.60;1.73;;;20.20;81.40;;;;;;10446201;28;20059;-67
2023/07/01 01:21:37;;;;;;;5.10;1.52;;;20.20;82.10;;;;;;10444736;28;20052;-67
2023/07/01 01:26:40;;;;;;;3.35;1.65;;;20.20;81.50;;;;;;10449639;28;20434;-67
2023/07/01 01:31:41;;;;;;;5.53;1.80;;;20.20;82.10;;;;;;10441178;28;20029;-67
2023/07/01 01:36:52;;;;;;;3.40;1.55;;;20.20;81.50;;;;;;10450312;28;20079;-67
2023/07/01 01:41:59;;;;;;;2.72;1.88;;;20.10;81.40;;;;;;10448604;28;20493;-67
2023/07/01 01:47:00;;;;;;;2.95;1.80;;;20.10;81.50;;;;;;10451894;28;20333;-67
2023/07/01 01:52:14;;;;;;;3.28;2.00;;;20.10;81.50;;;;;;10443808;28;20033;-67
2023/07/01 01:57:15;;;;;;;2.47;1.42;;;20.10;81.50;;;;;;10448293;28;20078;-67
2023/07/01 02:02:16;;;;;;;4.85;2.08;;;20.10;81.50;;;;;;10446551;28;20028;-67
2023/07/01 02:07:17;;;;;;;2.63;1.52;;;20.10;81.50;;;;;;10446687;28;20017;-67
2023/07/01 02:12:17;;;;;;;5.43;2.00;;;20.10;81.50;;;;;;10442133;28;20021;-67
2023/07/01 02:17:18;;;;;;;3.13;1.80;;;20.10;81.50;;;;;;10451144;28;20133;-67
2023/07/01 02:22:19;;;;;;;2.72;2.03;;;20.10;81.50;;;;;;10451311;28;20032;-67
2023/07/01 02:27:19;;;;;;;3.47;2.22;;;20.10;81.50;;;;;;10442518;28;20401;-67
2023/07/01 02:32:20;;;;;;;2.53;1.60;;;20.00;81.50;;;;;;10443517;28;20013;-67
2023/07/01 02:37:20;;;;;;;5.90;2.00;;;20.00;81.50;;;;;;10454073;28;20036;-67
2023/07/01 02:42:21;;;;;;;2.40;1.80;;;20.00;81.60;;;;;;10446039;28;20388;-67
2023/07/01 02:47:22;;;;;;;2.55;1.90;;;20.00;81.60;;;;;;10451203;28;20103;-67
2023/07/01 02:52:22;;;;;;;4.13;2.22;;;20.00;81.70;;;;;;10456735;28;20028;-67
2023/07/01 02:57:23;;;;;;;3.70;2.03;;;20.00;81.70;;;;;;10448066;28;20408;-67
2023/07/01 03:02:24;;;;;;;3.72;1.85;;;20.00;81.80;;;;;;10446865;28;20021;-67
2023/07/01 03:07:29;;;;;;;2.63;1.67;;;19.90;81.80;;;;;;10446477;28;20060;-67
2023/07/01 03:12:30;;;;;;;2.47;1.80;;;19.90;81.80;;;;;;10450930;28;20457;-67
2023/07/01 03:17:34;;;;;;;5.57;1.90;;;19.90;81.90;;;;;;10452976;28;20044;-67
2023/07/01 03:22:35;;;;;;;3.63;1.80;;;19.90;82.00;;;;;;10447564;28;20516;-68
2023/07/01 03:27:35;;;;;;;2.85;1.92;;;19.90;82.00;;;;;;10448751;28;20505;-67
2023/07/01 03:32:36;;;;;;;3.30;1.85;;;19.90;82.10;;;;;;10452989;28;20485;-67
2023/07/01 03:37:38;;;;;;;5.28;2.05;;;19.90;82.20;;;;;;10451786;28;20021;-67
2023/07/01 03:42:40;;;;;;;2.25;1.80;;;19.90;82.30;;;;;;10455505;28;20017;-67
2023/07/01 03:47:43;;;;;;;3.78;1.83;;;19.90;82.40;;;;;;10454487;28;20044;-67
2023/07/01 03:52:44;;;;;;;3.63;1.95;;;19.80;82.40;;;;;;10440728;28;20056;-67
2023/07/01 03:57:44;;;;;;;4.25;2.20;;;19.80;82.50;;;;;;10450036;28;20052;-67
2023/07/01 04:02:50;;;;;;;2.72;1.67;;;19.90;82.70;;;;;;10448792;28;20025;-67
2023/07/01 04:07:50;;;;;;;2.40;1.90;;;19.80;82.80;;;;;;10454715;28;20035;-67
2023/07/01 04:12:51;;;;;;;2.78;2.00;;;19.80;82.90;;;;;;10447491;28;20040;-67
2023/07/01 04:17:51;;;;;;;3.55;2.20;;;19.80;82.90;;;;;;10450396;28;20037;-67
2023/07/01 04:22:52;;;;;;;2.72;1.80;;;19.80;83.10;;;;;;10439494;28;20025;-67
2023/07/01 04:27:54;;;;;;;3.33;1.88;;;19.80;83.20;;;;;;10447388;28;20094;-67
2023/07/01 04:32:54;;;;;;;3.28;1.80;;;19.70;83.20;;;;;;10450266;28;20171;-67
2023/07/01 04:37:55;;;;;;;2.33;1.88;;;19.70;83.30;;;;;;10445710;28;20025;-67
2023/07/01 04:42:56;;;;;;;4.15;2.10;;;19.70;83.40;;;;;;10450810;28;20378;-67
2023/07/01 04:47:56;;;;;;;3.83;1.85;;;19.70;83.40;;;;;;10452510;28;20021;-67
2023/07/01 04:52:57;;;;;;;2.83;1.88;;;19.70;83.50;;;;;;10439846;28;20362;-67
2023/07/01 04:57:57;;;;;;;2.42;2.05;;;19.70;83.60;;;;;;10438209;28;20116;-67
2023/07/01 05:02:58;;;;;;;2.78;1.92;;;19.70;83.60;;;;;;10446849;28;20025;-67
2023/07/01 05:07:59;;;;;;;3.17;1.80;;;19.70;83.70;;;;;;10438651;28;20033;-67
2023/07/01 05:12:59;;;;;;;3.15;1.80;;;19.70;83.80;;;;;;10443886;28;20095;-67
2023/07/01 05:18:00;;;;;;;3.15;1.77;;;19.70;83.80;;;;;;10442445;28;20033;-67
2023/07/01 05:23:01;;;;;;;4.03;2.13;;;19.70;84.20;;;;;;10443865;28;20025;-67
2023/07/01 05:28:01;;;;;;;2.17;1.77;;;19.70;83.90;;;;;;10442021;28;20125;-67
2023/07/01 05:33:02;;;;;;;3.17;2.13;;;19.70;84.00;;;;;;10450902;28;20025;-67
2023/07/01 05:38:10;;;;;;;3.85;1.75;;;19.70;84.00;;;;;;10451523;28;20025;-67
2023/07/01 05:43:11;;;;;;;2.22;1.77;;;19.70;84.10;;;;;;10442029;28;20520;-67
2023/07/01 05:48:11;;;;;;;3.60;2.00;;;19.60;84.10;;;;;;10457710;28;20032;-67
2023/07/01 05:53:12;;;;;;;2.85;1.70;;;19.60;84.10;;;;;;10440021;28;20040;-67
2023/07/01 05:58:12;;;;;;;3.65;1.67;;;19.60;84.20;;;;;;10447130;28;20051;-67
2023/07/01 06:03:14;;;;;;;4.93;2.10;;;19.60;84.30;;;;;;10428864;28;20399;-67
2023/07/01 06:08:15;;;;;;;3.58;1.90;;;19.60;84.50;;;;;;10438156;28;20033;-67
2023/07/01 06:13:15;;;;;;;3.42;1.90;;;19.60;84.70;;;;;;10450691;28;20388;-67
2023/07/01 06:18:16;;;;;;;4.03;2.03;;;19.60;84.70;;;;;;10441990;28;20119;-67
2023/07/01 06:23:17;;;;;;;3.65;2.00;;;19.60;84.80;;;;;;10445926;28;20103;-67
2023/07/01 06:28:17;;;;;;;2.63;1.85;;;19.60;84.90;;;;;;10444136;28;20496;-67
2023/07/01 06:33:18;;;;;;;2.08;1.83;;;19.60;85.00;;;;;;10444592;28;20484;-67
2023/07/01 06:38:19;;;;;;;3.15;2.20;;;19.80;85.30;;;;;;10439637;28;20405;-67
2023/07/01 06:43:19;;;;;;;1.90;1.70;;;19.60;85.20;;;;;;10453003;28;20028;-67
2023/07/01 06:48:20;;;;;;;2.33;1.80;;;19.50;85.30;;;;;;10432552;28;20021;-67
2023/07/01 06:53:20;;;;;;;3.40;1.88;;;19.60;85.50;;;;;;10458332;28;20029;-67
2023/07/01 06:58:21;;;;;;;2.50;1.52;;;19.50;85.60;;;;;;10442040;28;20397;-67
2023/07/01 07:03:21;;;;;;;1.98;1.73;;;19.50;85.60;;;;;;10444120;28;20107;-67
2023/07/01 07:08:22;;;;;;;1.85;1.38;;;19.60;85.70;;;;;;10445265;28;20085;-67
2023/07/01 07:13:23;;;;;;;4.45;2.20;;;19.50;85.80;;;;;;10448368;28;20162;-67
2023/07/01 07:18:23;;;;;;;2.92;1.50;;;19.50;85.90;;;;;;10442772;28;20032;-67
2023/07/01 07:23:24;;;;;;;3.60;1.73;;;19.50;86.10;;;;;;10444287;28;20021;-67
2023/07/01 07:28:24;;;;;;;1.67;1.55;;;19.50;86.10;;;;;;10437998;28;20032;-67
2023/07/01 07:33:25;;;;;;;2.75;1.80;;;19.60;86.20;;;;;;10443141;28;20389;-67
2023/07/01 07:38:26;;;;;;;1.63;1.50;;;19.60;86.40;;;;;;10449694;28;20036;-67
2023/07/01 07:43:27;;;;;;;3.03;1.90;;;19.60;86.40;;;;;;10440513;28;20291;-67
2023/07/01 07:48:33;;;;;;;1.83;1.63;;;19.60;86.50;;;;;;10446439;28;20017;-67
2023/07/01 07:53:33;;;;;;;2.25;1.60;;;19.60;86.50;;;;;;10443638;28;20481;-67
2023/07/01 07:58:34;;;;;;;3.03;2.40;;;19.60;86.60;;;;;;10444123;28;20085;-67
2023/07/01 08:03:35;;;;;;;2.30;1.67;;;19.60;86.70;;;;;;10439952;28;20044;-67
2023/07/01 08:08:36;;;;;;;1.98;1.60;;;19.60;86.70;;;;;;10435363;28;20494;-67
2023/07/01 08:13:36;;;;;;;2.92;1.77;;;19.60;86.80;;;;;;10446953;28;20025;-67
2023/07/01 08:18:37;;;;;;;2.13;1.58;;;19.60;86.90;;;;;;10440566;28;20032;-67
2023/07/01 08:23:38;;;;;;;1.85;1.50;;;19.60;86.90;;;;;;10434611;28;20941;-67
2023/07/01 08:28:38;;;;;;;3.03;1.75;;;19.60;87.00;;;;;;10437318;28;20028;-67
2023/07/01 08:33:39;;;;;;;2.45;1.63;;;19.60;87.10;;;;;;10444345;28;20028;-67
2023/07/01 08:38:39;;;;;;;2.97;1.77;;;19.50;87.00;;;;;;10441743;28;20060;-66
2023/07/01 08:43:42;;;;;;;2.38;1.55;;;19.60;87.10;;;;;;10443586;28;20435;-67
2023/07/01 08:48:45;;;;;;;3.60;1.63;;;19.60;87.30;;;;;;10442900;28;20017;-67
2023/07/01 08:53:46;;;;;;;1.65;1.50;;;19.60;87.30;;;;;;10443377;28;20028;-67
2023/07/01 08:58:48;;;;;;;1.73;1.50;;;19.60;87.30;;;;;;10445727;28;20021;-67
2023/07/01 09:03:49;;;;;;;2.22;1.60;;;19.60;87.40;;;;;;10444335;28;20098;-67
2023/07/01 09:08:50;;;;;;;2.75;1.77;;;19.60;87.60;;;;;;10447541;28;20033;-67
2023/07/01 09:13:55;;;;;;;1.90;1.40;;;19.70;87.70;;;;;;10453722;28;20547;-67
2023/07/01 09:19:03;;;;;;;2.50;1.80;;;19.70;87.80;;;;;;10438654;28;20196;-67
2023/07/01 09:24:06;;;;;;;2.35;1.95;;;19.70;87.90;;;;;;10455643;28;20095;-67
2023/07/01 09:29:15;;;;;;;2.53;1.67;;;19.70;87.70;;;;;;10454152;28;20592;-67
2023/07/01 09:34:17;;;;;;;2.45;1.45;;;19.70;87.90;;;;;;10451719;28;20046;-67
2023/07/01 09:39:32;;;;;;;1.70;1.60;;;19.70;87.90;;;;;;10448346;28;20056;-67
2023/07/01 09:44:32;;;;;;;1.83;1.55;;;19.80;88.30;;;;;;10440641;28;20029;-67
2023/07/01 09:49:40;;;;;;;2.08;1.80;;;19.70;88.00;;;;;;10452653;28;20018;-67
2023/07/01 09:54:42;;;;;;;2.33;1.42;;;19.80;88.20;;;;;;10447349;28;20021;-67
2023/07/01 09:59:45;;;;;;;1.67;1.55;;;19.70;88.10;;;;;;10447075;28;20561;-67
2023/07/01 10:04:45;;;;;;;1.90;1.55;;;19.80;88.30;;;;;;10460009;28;20079;-67
2023/07/01 10:09:47;;;;;;;1.73;1.50;;;19.70;88.30;;;;;;10448254;28;20021;-67
2023/07/01 10:14:51;;;;;;;1.80;1.42;;;19.80;88.50;;;;;;10449376;28;20025;-67
2023/07/01 10:19:52;;;;;;;1.67;1.58;;;19.80;88.60;;;;;;10446263;28;20315;-67
2023/07/01 10:25:03;;;;;;;1.80;1.58;;;19.80;88.60;;;;;;10438985;28;20037;-67
2023/07/01 10:30:13;;;;;;;2.13;1.60;;;19.80;88.60;;;;;;10454612;28;20029;-67
2023/07/01 10:35:15;;;;;;;1.70;1.50;;;19.80;88.70;;;;;;10446732;28;20033;-67
2023/07/01 10:40:27;;;;;;;1.83;1.70;;;19.80;88.80;;;;;;10445395;28;20056;-67
2023/07/01 10:45:28;;;;;;;1.45;1.30;;;19.80;89.20;;;;;;10452196;28;20392;-67
2023/07/01 10:50:29;;;;;;;1.52;1.42;;;19.80;89.00;;;;;;10451837;28;20020;-67
2023/07/01 10:55:46;;;;;;;2.83;1.40;;;19.80;89.00;;;;;;10457455;28;20016;-67
2023/07/01 11:01:05;;;;;;;1.48;1.38;;;19.90;89.40;;;;;;10446720;28;20025;-67
2023/07/01 11:06:07;;;;;;;1.50;1.40;;;19.90;89.40;;;;;;10450754;28;20021;-67
2023/07/01 11:11:08;;;;;;;2.20;1.40;;;19.90;89.10;;;;;;10449812;28;20075;-67
2023/07/01 11:16:10;;;;;;;1.33;1.23;;;19.90;89.20;;;;;;10449695;28;20022;-67
2023/07/01 11:21:14;;;;;;;1.30;1.08;;;19.80;89.30;;;;;;10446059;28;20023;-67
2023/07/01 11:26:20;;;;;;;1.25;1.15;;;20.00;89.50;;;;;;10436454;28;20028;-67
2023/07/01 11:31:24;;;;;;;1.92;1.30;;;20.00;89.60;;;;;;10443170;28;20127;-67
2023/07/01 11:36:38;;;;;;;1.40;1.15;;;20.00;89.60;;;;;;10455118;28;20019;-67
2023/07/01 11:41:41;;;;;;;1.10;1.00;;;20.00;89.80;;;;;;10441355;28;20021;-67
2023/07/01 11:46:43;;;;;;;2.38;1.20;;;20.00;89.60;;;;;;10439423;28;20052;-67
2023/07/01 11:51:49;;;;;;;1.30;1.20;;;20.00;89.70;;;;;;10448676;28;20051;-67
2023/07/01 11:57:06;;;;;;;1.20;1.10;;;20.10;89.70;;;;;;10445392;28;20018;-67
2023/07/01 12:02:08;;;;;;;1.30;1.20;;;20.00;89.60;;;;;;10433857;28;20025;-67
2023/07/01 12:07:10;;;;;;;1.48;1.17;;;20.00;89.70;;;;;;10428991;28;20055;-67
2023/07/01 12:12:15;;;;;;;1.23;1.13;;;20.00;89.70;;;;;;10433596;28;20079;-67
2023/07/01 12:17:28;;;;;;;1.58;1.20;;;20.10;89.90;;;;;;10432012;28;20029;-67
2023/07/01 12:22:29;;;;;;;1.95;1.30;;;20.10;90.00;;;;;;10432922;28;20367;-67
2023/07/01 12:27:29;;;;;;;1.27;1.15;;;20.10;89.80;;;;;;10436277;28;20032;-67
2023/07/01 12:32:30;;;;;;;1.13;1.02;;;20.10;89.80;;;;;;10451738;28;20024;-67
2023/07/01 12:37:31;;;;;;;1.50;1.08;;;20.20;89.70;;;;;;10446378;28;20140;-67
2023/07/01 12:42:33;;;;;;;1.23;1.10;;;20.20;89.60;;;;;;10449809;28;20396;-67
2023/07/01 12:47:38;;;;;;;1.10;1.00;;;20.30;89.60;;;;;;10451625;28;20556;-67
2023/07/01 12:52:39;;;;;;;2.08;1.27;;;20.30;89.60;;;;;;10448409;28;20029;-67
2023/07/01 12:57:40;;;;;;;1.48;1.20;;;20.30;89.80;;;;;;10448163;28;20036;-67
2023/07/01 13:02:45;;;;;;;1.67;1.40;;;20.30;89.90;;;;;;10440979;28;20021;-67
2023/07/01 13:07:48;;;;;;;2.35;1.25;;;20.20;90.00;;;;;;10454867;28;20032;-67
2023/07/01 13:12:57;;;;;;;2.08;1.30;;;20.20;90.00;;;;;;10439151;28;20041;-67
2023/07/01 13:17:59;;;;;;;1.92;1.20;;;20.20;90.10;;;;;;10448465;28;20036;-67
2023/07/01 13:23:01;;;;;;;1.98;1.35;;;20.20;90.10;;;;;;10444943;28;20039;-67
2023/07/01 13:28:03;;;;;;;2.33;1.30;;;20.20;90.10;;;;;;10441827;28;20052;-67
2023/07/01 13:33:04;;;;;;;1.65;1.30;;;20.30;90.10;;;;;;10447536;28;20023;-67
2023/07/01 13:38:09;;;;;;;1.30;1.05;;;20.30;90.00;;;;;;10448942;28;20028;-67
2023/07/01 13:43:19;;;;;;;1.25;1.15;;;20.40;89.90;;;;;;10449997;28;20056;-67
2023/07/01 13:48:25;;;;;;;2.45;1.33;;;20.50;89.80;;;;;;10449305;28;20049;-66
2023/07/01 13:53:26;;;;;;;1.75;1.38;;;20.40;89.80;;;;;;10447119;28;20469;-67
2023/07/01 13:58:28;;;;;;;1.60;1.30;;;20.40;89.70;;;;;;10445652;28;20025;-67
2023/07/01 14:03:45;;;;;;;1.50;1.40;;;20.50;90.00;;;;;;10443366;28;20389;-67
2023/07/01 14:08:47;;;;;;;1.83;1.30;;;20.40;90.10;;;;;;10450499;28;20432;-67
2023/07/01 14:13:56;;;;;;;2.10;1.40;;;20.40;90.10;;;;;;10435052;28;20017;-67
2023/07/01 14:18:58;;;;;;;1.73;1.30;;;20.40;90.20;;;;;;10443573;28;20021;-67
2023/07/01 14:24:04;;;;;;;1.50;1.33;;;20.40;90.20;;;;;;10433624;28;20512;-67
2023/07/01 14:29:05;;;;;;;1.50;1.30;;;20.40;90.20;;;;;;10449486;28;20024;-67
2023/07/01 14:34:08;;;;;;;1.40;1.15;;;20.40;90.20;;;;;;10444434;28;20029;-67
2023/07/01 14:39:10;;;;;;;1.63;1.30;;;20.50;90.20;;;;;;10440576;28;20025;-67
2023/07/01 14:44:22;;;;;;;1.85;1.40;;;20.40;90.20;;;;;;10442429;28;20043;-67
2023/07/01 14:49:22;;;;;;;2.05;1.45;;;20.40;90.40;;;;;;10433674;28;20014;-67
2023/07/01 14:54:23;;;;;;;2.35;1.40;;;20.40;90.50;;;;;;10446969;28;20013;-67
2023/07/01 14:59:24;;;;;;;2.15;1.52;;;20.30;90.70;;;;;;10446001;28;20029;-67
2023/07/01 15:04:25;;;;;;;1.80;1.63;;;20.40;90.80;;;;;;10446833;28;20481;-67
2023/07/01 15:09:26;;;;;;;1.77;1.58;;;20.40;90.90;;;;;;10439893;28;20048;-67
2023/07/01 15:14:26;;;;;;;3.83;1.73;;;20.40;90.90;;;;;;10439139;28;20031;-67
2023/07/01 15:19:28;;;;;;;2.60;1.40;;;20.40;90.90;;;;;;10448060;28;20017;-67
2023/07/01 15:24:29;;;;;;;2.13;1.55;;;20.50;90.80;;;;;;10448089;28;20041;-67
2023/07/01 15:29:29;;;;;;;2.05;1.60;;;20.60;90.80;;;;;;10437290;28;20028;-67
2023/07/01 15:34:30;;;;;;;2.47;1.40;;;20.60;90.60;;;;;;10436718;28;20456;-67
2023/07/01 15:39:31;;;;;;;3.42;1.50;;;20.60;90.60;;;;;;10447339;28;20453;-67
2023/07/01 15:44:32;;;;;;;1.60;1.48;;;20.60;90.60;;;;;;10441241;28;20320;-67
2023/07/01 15:49:33;;;;;;;2.45;1.40;;;20.60;90.50;;;;;;10436632;28;20128;-67
2023/07/01 15:54:34;;;;;;;2.45;1.58;;;20.60;90.50;;;;;;10445720;28;20027;-67
2023/07/01 15:59:35;;;;;;;1.70;1.30;;;20.60;90.50;;;;;;10441830;28;20720;-67
2023/07/01 16:04:36;;;;;;;1.60;1.50;;;20.70;90.60;;;;;;10442834;28;20029;-67
2023/07/01 16:09:39;;;;;;;1.90;1.50;;;20.70;90.60;;;;;;10443997;28;20025;-67
2023/07/01 16:14:41;;;;;;;1.48;1.33;;;20.60;90.60;;;;;;10430325;28;20473;-66
2023/07/01 16:19:43;;;;;;;2.35;1.55;;;20.60;90.50;;;;;;10445434;28;20044;-67
2023/07/01 16:24:52;;;;;;;1.95;1.58;;;20.60;90.50;;;;;;10432928;28;20041;-67
2023/07/01 16:30:00;;;;;;;1.55;1.40;;;20.60;90.60;;;;;;10441827;28;20419;-67
2023/07/01 16:35:06;;;;;;;2.00;1.33;;;20.60;90.60;;;;;;10440572;28;20397;-67
2023/07/01 16:40:46;;;;;;;2.20;1.55;;;20.60;90.50;;;;;;10441436;28;20025;-67
2023/07/01 16:45:49;;;;;;;1.77;1.63;;;20.60;90.50;;;;;;10436876;28;20120;-67
2023/07/01 16:51:03;;;;;;;1.73;1.45;;;20.60;90.50;;;;;;10435891;28;20078;-67
2023/07/01 16:56:11;;;;;;;3.30;1.60;;;20.60;90.50;;;;;;10437793;28;20564;-67
2023/07/01 17:01:13;;;;;;;2.28;1.40;;;20.50;90.50;;;;;;10444339;28;20033;-67
2023/07/01 17:06:45;;;;;;;1.83;1.42;;;20.50;90.50;;;;;;10441497;28;20025;-67
2023/07/01 17:11:46;;;;;;;1.75;1.35;;;20.50;90.60;;;;;;10435748;28;20300;-67
2023/07/01 17:16:47;;;;;;;3.45;1.35;;;20.50;90.50;;;;;;10441921;28;20515;-67
2023/07/01 17:21:48;;;;;;;1.98;1.40;;;20.50;90.50;;;;;;10445443;28;20109;-67
2023/07/01 17:26:49;;;;;;;2.00;1.30;;;20.50;90.50;;;;;;10454478;28;20464;-67
2023/07/01 17:31:49;;;;;;;2.58;1.52;;;20.50;90.50;;;;;;10453556;28;20024;-67
2023/07/01 17:36:50;;;;;;;3.97;1.42;;;20.50;90.50;;;;;;10458724;28;20387;-67
2023/07/01 17:41:50;;;;;;;1.67;1.00;;;20.40;90.50;;;;;;10450824;28;20057;-67
2023/07/01 17:46:51;;;;;;;1.38;1.17;;;20.40;90.50;;;;;;10449831;28;20040;-67
2023/07/01 17:51:52;;;;;;;1.80;1.20;;;20.40;90.60;;;;;;10447258;28;20090;-67
2023/07/01 17:56:52;;;;;;;1.20;0.95;;;20.40;90.60;;;;;;10455881;28;20074;-67
2023/07/01 18:01:53;;;;;;;2.90;1.25;;;20.30;90.60;;;;;;10450779;28;20071;-67
2023/07/01 18:06:54;;;;;;;1.75;1.30;;;20.30;90.60;;;;;;10452218;28;20041;-67
2023/07/01 18:11:55;;;;;;;1.25;0.93;;;20.30;90.60;;;;;;10447926;28;20021;-67
2023/07/01 18:16:56;;;;;;;1.52;1.42;;;20.30;90.60;;;;;;10435109;28;20048;-67
2023/07/01 18:21:56;;;;;;;2.05;1.20;;;20.30;90.60;;;;;;10457966;28;20024;-67
2023/07/01 18:26:57;;;;;;;1.40;1.10;;;20.30;90.60;;;;;;10450092;28;20041;-67
2023/07/01 18:31:57;;;;;;;1.40;1.00;;;20.30;90.60;;;;;;10449707;28;20032;-67
2023/07/01 18:36:58;;;;;;;2.10;1.30;;;20.30;90.60;;;;;;10449977;28;20033;-67
2023/07/01 18:42:00;;;;;;;1.95;1.00;;;20.20;90.50;;;;;;10457061;28;20025;-67
2023/07/01 18:47:01;;;;;;;1.15;1.05;;;20.20;90.50;;;;;;10448790;28;20024;-67
2023/07/01 18:52:02;;;;;;;2.67;1.10;;;20.20;90.60;;;;;;10452968;28;20508;-67
2023/07/01 18:57:03;;;;;;;3.17;1.17;;;20.20;90.60;;;;;;10456468;28;20032;-67
2023/07/01 19:02:04;;;;;;;3.25;1.10;;;20.20;90.60;;;;;;10455124;28;20028;-67
2023/07/01 19:07:07;;;;;;;1.27;1.17;;;20.20;90.60;;;;;;10443124;28;20036;-67
2023/07/01 19:12:08;;;;;;;2.03;1.52;;;20.20;90.60;;;;;;10445951;28;20029;-67
2023/07/01 19:17:09;;;;;;;1.00;0.95;;;20.10;90.60;;;;;;10443250;28;20025;-67
2023/07/01 19:22:21;;;;;;;2.58;1.13;;;20.20;90.60;;;;;;10444130;28;20058;-67
2023/07/01 19:27:22;;;;;;;2.60;1.40;;;20.10;90.60;;;;;;10446631;28;20324;-67
2023/07/01 19:32:23;;;;;;;2.58;1.30;;;20.10;90.60;;;;;;10446564;28;20094;-67
2023/07/01 19:37:23;;;;;;;2.17;1.30;;;20.10;90.60;;;;;;10447818;28;20019;-67
2023/07/01 19:42:24;;;;;;;1.27;1.00;;;20.10;90.60;;;;;;10446705;28;20033;-67
2023/07/01 19:47:24;;;;;;;1.83;1.02;;;20.00;90.60;;;;;;10440940;28;20021;-67
2023/07/01 19:52:25;;;;;;;1.60;1.13;;;20.00;90.60;;;;;;10446332;28;20024;-67
2023/07/01 19:57:26;;;;;;;2.25;1.27;;;20.00;90.60;;;;;;10447812;28;20512;-67
2023/07/01 20:02:26;;;;;;;4.88;1.33;;;20.00;90.60;;;;;;10439757;28;20025;-67
2023/07/01 20:07:29;;;;;;;1.67;0.95;;;19.90;90.60;;;;;;10447071;28;20094;-65
2023/07/01 20:12:30;;;;;;;1.20;1.10;;;20.00;90.60;;;;;;10438578;28;20027;-66
2023/07/01 20:17:30;;;;;;;1.25;1.10;;;20.00;90.60;;;;;;10441246;28;20024;-66
2023/07/01 20:22:32;;;;;;;1.08;0.98;;;19.90;90.60;;;;;;10447800;28;20026;-66
2023/07/01 20:27:32;;;;;;;2.22;1.33;;;19.90;90.60;;;;;;10448958;28;20044;-65
2023/07/01 20:32:33;;;;;;;2.33;1.30;;;19.90;90.50;;;;;;10447550;28;20099;-66
2023/07/01 20:37:34;;;;;;;2.38;1.25;;;19.90;90.50;;;;;;10444080;28;20017;-66
2023/07/01 20:42:38;;;;;;;2.03;1.20;;;19.80;90.50;;;;;;10440137;28;20598;-66
2023/07/01 20:47:38;;;;;;;2.25;1.30;;;19.80;90.50;;;;;;10442326;28;20029;-66
2023/07/01 20:52:39;;;;;;;1.40;1.30;;;19.90;90.50;;;;;;10443115;28;20025;-66
2023/07/01 20:57:40;;;;;;;2.15;1.35;;;19.70;90.50;;;;;;10452577;28;20026;-65
2023/07/01 21:02:40;;;;;;;2.13;1.42;;;19.80;90.50;;;;;;10457690;28;20505;-65
2023/07/01 21:07:41;;;;;;;2.83;1.30;;;19.80;90.50;;;;;;10455976;28;20021;-66
2023/07/01 21:12:42;;;;;;;2.55;1.48;;;19.80;90.50;;;;;;10450933;28;20473;-65
2023/07/01 21:17:45;;;;;;;1.30;1.20;;;19.80;90.50;;;;;;10453022;28;20031;-66
2023/07/01 21:22:45;;;;;;;1.90;1.33;;;19.70;90.50;;;;;;10447171;28;20396;-66
2023/07/01 21:28:04;;;;;;;3.97;1.70;;;19.70;90.50;;;;;;10441861;28;20033;-67
2023/07/01 21:33:05;;;;;;;3.05;1.65;;;19.70;90.40;;;;;;10453888;28;20041;-65
2023/07/01 21:38:06;;;;;;;2.30;1.58;;;19.70;90.50;;;;;;10452742;28;20090;-65
2023/07/01 21:43:21;;;;;;;3.67;1.73;;;19.70;90.50;;;;;;10457433;28;20033;-66
2023/07/01 21:48:23;;;;;;;2.25;1.40;;;19.60;90.40;;;;;;10449240;28;20019;-65
2023/07/01 21:53:44;;;;;;;1.58;1.42;;;19.60;90.50;;;;;;10464231;28;20040;-66
2023/07/01 21:58:53;;;;;;;2.08;1.40;;;19.70;90.50;;;;;;10440205;28;20452;-65
2023/07/01 22:03:55;;;;;;;2.47;1.60;;;19.60;90.50;;;;;;10457833;28;20107;-66
2023/07/01 22:08:57;;;;;;;2.28;1.70;;;19.50;90.50;;;;;;10438255;28;20017;-66
2023/07/01 22:13:58;;;;;;;2.90;1.70;;;19.60;90.50;;;;;;10439125;28;20036;-65
2023/07/01 22:18:59;;;;;;;2.33;1.55;;;19.60;90.60;;;;;;10444947;28;20064;-65
2023/07/01 22:24:00;;;;;;;2.63;1.73;;;19.60;90.50;;;;;;10437321;28;20038;-66
2023/07/01 22:29:01;;;;;;;1.95;1.65;;;19.60;90.50;;;;;;10428369;28;20028;-65
2023/07/01 22:34:02;;;;;;;1.95;1.52;;;19.50;90.50;;;;;;10451851;28;21273;-66
2023/07/01 22:39:03;;;;;;;3.30;1.67;;;19.60;90.50;;;;;;10426378;28;20485;-66
2023/07/01 22:44:04;;;;;;;3.70;1.60;;;19.50;90.50;;;;;;10439740;28;20485;-65
2023/07/01 22:49:04;;;;;;;1.55;1.45;;;19.50;90.50;;;;;;10438911;28;20033;-66
2023/07/01 22:54:05;;;;;;;4.97;1.50;;;19.50;90.50;;;;;;10453053;28;20759;-65
2023/07/01 22:59:05;;;;;;;3.17;1.52;;;19.50;90.50;;;;;;10434190;28;20401;-65
2023/07/01 23:04:06;;;;;;;1.88;1.40;;;19.50;90.50;;;;;;10441819;28;20040;-65
2023/07/01 23:09:07;;;;;;;2.67;1.60;;;19.50;90.50;;;;;;10445191;28;20045;-66
2023/07/01 23:14:08;;;;;;;3.28;1.40;;;19.40;90.50;;;;;;10440329;28;20445;-65
2023/07/01 23:19:08;;;;;;;3.30;1.65;;;19.50;90.50;;;;;;10444441;28;20532;-65
2023/07/01 23:24:10;;;;;;;2.33;1.65;;;19.50;90.50;;;;;;10439745;28;20048;-66
2023/07/01 23:29:11;;;;;;;3.03;1.65;;;19.50;90.50;;;;;;10440297;28;20096;-65
2023/07/01 23:34:11;;;;;;;2.00;1.50;;;19.40;90.50;;;;;;10443330;28;20114;-65
2023/07/01 23:39:12;;;;;;;2.53;1.80;;;19.40;90.50;;;;;;10439838;28;20036;-66
2023/07/01 23:44:13;;;;;;;1.55;1.45;;;19.40;90.60;;;;;;10449846;28;20029;-65
2023/07/01 23:49:15;;;;;;;2.50;1.90;;;19.40;90.60;;;;;;10449962;28;20426;-66
2023/07/01 23:54:15;;;;;;;1.90;1.55;;;19.40;90.60;;;;;;10437335;28;20302;-65
2023/07/01 23:59:16;;;;;;;2.83;1.98;;;19.40;90.60;;;;;;10435115;28;20025;-65
